createdAt,value
2019-03-22T00:00:47.751Z,72.87
2019-03-22T00:03:22.367Z,72.91
2019-03-22T00:05:56.046Z,73.24
2019-03-22T00:08:29.626Z,73.33
2019-03-22T00:11:03.281Z,73.70
2019-03-22T00:13:36.847Z,74.04
2019-03-22T00:16:10.465Z,74.17
2019-03-22T00:18:44.127Z,74.62
2019-03-22T00:21:17.769Z,74.74
2019-03-22T00:23:51.328Z,75.00
2019-03-22T00:26:25.093Z,75.22
2019-03-22T00:28:58.657Z,75.12
2019-03-22T00:31:32.287Z,75.27
2019-03-22T00:34:05.928Z,75.22
2019-03-22T00:36:39.619Z,75.29
2019-03-22T00:39:13.338Z,75.24
2019-03-22T00:41:46.908Z,75.53
2019-03-22T00:44:20.415Z,75.72
2019-03-22T00:46:54.049Z,75.83
2019-03-22T00:49:27.556Z,75.92
2019-03-22T00:52:01.109Z,76.11
2019-03-22T00:54:34.607Z,76.23
2019-03-22T00:57:08.127Z,76.22
2019-03-22T00:59:41.675Z,76.23
2019-03-22T01:02:15.235Z,76.74
2019-03-22T01:04:48.817Z,76.83
2019-03-22T01:07:23.396Z,76.96
2019-03-22T01:09:56.873Z,76.79
2019-03-22T01:12:30.368Z,76.65
2019-03-22T01:15:03.842Z,76.82
2019-03-22T01:17:37.346Z,77.06
2019-03-22T01:20:11.888Z,77.23
2019-03-22T01:22:46.468Z,77.52
2019-03-22T01:25:20.015Z,77.41
2019-03-22T01:27:53.662Z,77.16
2019-03-22T01:30:27.198Z,76.50
2019-03-22T01:33:00.783Z,76.87
2019-03-22T01:35:34.402Z,77.16
2019-03-22T01:38:07.977Z,77.07
2019-03-22T01:40:41.577Z,76.96
2019-03-22T01:43:15.147Z,77.35
2019-03-22T01:45:48.716Z,77.89
2019-03-22T01:48:22.213Z,77.82
2019-03-22T01:50:55.803Z,77.60
2019-03-22T01:53:29.290Z,77.46
2019-03-22T01:56:02.873Z,77.69
2019-03-22T01:58:36.444Z,77.56
2019-03-22T02:01:09.959Z,77.51
2019-03-22T02:03:43.530Z,77.46
2019-03-22T02:06:17.123Z,77.96
2019-03-22T02:08:50.595Z,78.61
2019-03-22T02:11:24.214Z,79.02
2019-03-22T02:13:57.786Z,79.10
2019-03-22T02:16:31.391Z,78.94
2019-03-22T02:19:05.035Z,78.75
2019-03-22T02:21:38.767Z,78.57
2019-03-22T02:24:12.457Z,78.45
2019-03-22T02:26:46.128Z,78.24
2019-03-22T02:29:19.830Z,77.99
2019-03-22T02:31:53.301Z,77.88
2019-03-22T02:34:26.835Z,77.67
2019-03-22T02:37:00.322Z,77.48
2019-03-22T02:39:33.978Z,77.52
2019-03-22T02:42:07.797Z,77.82
2019-03-22T02:44:41.479Z,77.73
2019-03-22T02:47:15.011Z,77.59
2019-03-22T02:49:49.621Z,77.38
2019-03-22T02:52:23.133Z,77.26
2019-03-22T02:54:56.727Z,77.41
2019-03-22T02:57:30.201Z,77.47
2019-03-22T03:00:03.982Z,77.45
2019-03-22T03:02:37.644Z,77.45
2019-03-22T03:05:11.800Z,77.55
2019-03-22T03:07:45.621Z,77.48
2019-03-22T03:10:20.322Z,77.41
2019-03-22T03:12:53.934Z,77.55
2019-03-22T03:15:27.613Z,77.43
2019-03-22T03:18:01.125Z,77.44
2019-03-22T03:20:34.790Z,77.47
2019-03-22T03:23:08.268Z,77.52
2019-03-22T03:25:41.899Z,77.65
2019-03-22T03:28:15.473Z,77.54
2019-03-22T03:30:49.024Z,77.58
2019-03-22T03:33:22.622Z,77.62
2019-03-22T03:35:56.128Z,77.57
2019-03-22T03:38:29.629Z,77.58
2019-03-22T03:41:03.231Z,77.52
2019-03-22T03:43:36.723Z,77.57
2019-03-22T03:46:10.241Z,77.61
2019-03-22T03:48:43.781Z,77.51
2019-03-22T03:51:17.350Z,77.43
2019-03-22T03:53:50.844Z,77.45
2019-03-22T03:56:24.396Z,77.53
2019-03-22T03:58:58.368Z,77.84
2019-03-22T04:01:31.974Z,77.81
2019-03-22T04:04:05.536Z,77.87
2019-03-22T04:06:39.022Z,77.95
2019-03-22T04:09:12.562Z,78.01
2019-03-22T04:11:46.210Z,77.96
2019-03-22T04:14:19.854Z,77.84
2019-03-22T04:16:53.424Z,77.71
2019-03-22T04:19:27.018Z,77.52
2019-03-22T04:22:00.505Z,77.53
2019-03-22T04:24:34.039Z,77.50
2019-03-22T04:27:07.546Z,77.49
2019-03-22T04:29:41.214Z,77.40
2019-03-22T04:32:14.717Z,77.27
2019-03-22T04:34:48.285Z,77.29
2019-03-22T04:37:21.769Z,77.19
2019-03-22T04:39:55.419Z,77.12
2019-03-22T04:42:29.073Z,77.09
2019-03-22T04:45:02.664Z,76.99
2019-03-22T04:47:36.734Z,76.92
2019-03-22T04:50:10.530Z,76.85
2019-03-22T04:52:44.282Z,76.79
2019-03-22T04:55:19.111Z,76.74
2019-03-22T04:57:54.595Z,76.80
2019-03-22T05:00:28.676Z,76.74
2019-03-22T05:03:02.779Z,76.70
2019-03-22T05:05:36.483Z,76.71
2019-03-22T05:08:10.874Z,76.81
2019-03-22T05:10:46.540Z,76.80
2019-03-22T05:13:23.103Z,76.70
2019-03-22T05:15:57.452Z,76.69
2019-03-22T05:18:33.708Z,76.87
2019-03-22T05:21:08.555Z,76.96
2019-03-22T05:23:43.238Z,77.15
2019-03-22T05:26:19.788Z,77.20
2019-03-22T05:28:54.119Z,77.04
2019-03-22T05:32:14.648Z,76.88
2019-03-22T05:34:48.252Z,76.83
2019-03-22T05:37:21.788Z,76.74
2019-03-22T05:39:55.392Z,76.97
2019-03-22T05:42:28.932Z,76.91
2019-03-22T05:45:02.535Z,77.15
2019-03-22T05:47:36.225Z,77.12
2019-03-22T05:50:09.741Z,76.61
2019-03-22T05:52:43.297Z,76.40
2019-03-22T05:55:16.799Z,76.39
2019-03-22T05:57:50.333Z,76.21
2019-03-22T06:00:24.130Z,76.23
2019-03-22T06:02:57.682Z,76.11
2019-03-22T06:05:31.303Z,76.13
2019-03-22T06:08:04.845Z,76.15
2019-03-22T06:10:38.397Z,75.98
2019-03-22T06:13:12.009Z,75.73
2019-03-22T06:15:45.685Z,75.79
2019-03-22T06:18:19.285Z,75.77
2019-03-22T06:20:52.848Z,75.76
2019-03-22T06:23:26.447Z,75.64
2019-03-22T06:26:01.145Z,75.39
2019-03-22T06:28:34.708Z,75.32
2019-03-22T06:31:08.399Z,75.50
2019-03-22T06:33:41.967Z,75.36
2019-03-22T06:36:15.561Z,75.32
2019-03-22T06:38:49.143Z,75.49
2019-03-22T06:41:22.711Z,74.83
2019-03-22T06:43:56.238Z,74.48
2019-03-22T06:46:29.851Z,74.32
2019-03-22T06:49:03.497Z,74.09
2019-03-22T06:51:37.539Z,73.98
2019-03-22T06:54:11.223Z,73.96
2019-03-22T06:56:44.793Z,73.78
2019-03-22T06:59:18.369Z,73.83
2019-03-22T07:01:51.966Z,73.75
2019-03-22T07:04:25.570Z,73.39
2019-03-22T07:06:59.159Z,73.15
2019-03-22T07:09:32.799Z,73.18
2019-03-22T07:12:06.575Z,72.95
2019-03-22T07:14:40.232Z,72.94
2019-03-22T07:17:13.902Z,72.41
2019-03-22T07:19:50.810Z,72.73
2019-03-22T07:22:24.760Z,72.84
2019-03-22T07:24:59.896Z,72.63
2019-03-22T07:27:33.637Z,72.42
2019-03-22T07:30:18.521Z,72.60
2019-03-22T07:32:48.916Z,72.54
2019-03-22T07:35:22.742Z,72.37
2019-03-22T07:37:56.482Z,72.46
2019-03-22T07:40:30.295Z,72.43
2019-03-22T07:43:04.168Z,72.36
2019-03-22T07:45:37.948Z,72.35
2019-03-22T07:48:11.857Z,72.38
2019-03-22T07:50:45.607Z,72.05
2019-03-22T07:53:19.383Z,71.94
2019-03-22T07:55:55.251Z,71.81
2019-03-22T07:58:29.144Z,72.09
2019-03-22T08:01:02.857Z,72.21
2019-03-22T08:03:36.798Z,71.93
2019-03-22T08:06:10.913Z,72.14
2019-03-22T08:08:44.570Z,72.09
2019-03-22T08:11:18.351Z,71.93
2019-03-22T08:13:52.151Z,71.88
2019-03-22T08:16:25.941Z,72.11
2019-03-22T08:18:59.629Z,72.25
2019-03-22T08:21:34.315Z,71.97
2019-03-22T08:24:08.019Z,72.04
2019-03-22T08:26:43.208Z,71.77
2019-03-22T08:29:17.161Z,71.53
2019-03-22T08:31:53.070Z,71.19
2019-03-22T08:34:26.967Z,70.98
2019-03-22T08:37:01.018Z,71.31
2019-03-22T08:39:35.160Z,71.25
2019-03-22T08:42:09.100Z,70.84
2019-03-22T08:44:45.588Z,71.25
2019-03-22T08:47:19.734Z,71.01
2019-03-22T08:49:53.645Z,71.04
2019-03-22T08:52:27.500Z,70.72
2019-03-22T08:55:04.149Z,70.42
2019-03-22T08:57:37.897Z,70.66
2019-03-22T09:00:13.458Z,70.86
2019-03-22T09:02:50.989Z,71.46
2019-03-22T09:05:27.992Z,71.85
2019-03-22T09:08:11.240Z,71.13
2019-03-22T09:10:58.926Z,70.87
2019-03-22T09:13:48.783Z,70.79
2019-03-22T09:16:34.746Z,70.64
2019-03-22T09:19:12.544Z,70.07
2019-03-22T09:21:46.306Z,70.16
2019-03-22T09:24:21.077Z,70.26
2019-03-22T09:26:58.424Z,70.33
2019-03-22T09:29:32.336Z,69.90
2019-03-22T09:32:06.051Z,70.21
2019-03-22T09:34:47.418Z,70.33
2019-03-22T09:37:24.066Z,69.48
2019-03-22T09:39:57.806Z,69.77
2019-03-22T09:42:42.483Z,69.55
2019-03-22T09:45:23.102Z,70.17
2019-03-22T09:48:06.699Z,70.00
2019-03-22T09:50:47.634Z,69.89
2019-03-22T09:53:24.637Z,69.71
2019-03-22T09:56:03.925Z,69.46
2019-03-22T09:58:38.030Z,69.33
2019-03-22T10:01:23.070Z,69.13
2019-03-22T10:03:52.781Z,69.07
2019-03-22T10:06:27.103Z,69.43
2019-03-22T10:09:10.161Z,69.66
2019-03-22T10:11:44.322Z,69.96
2019-03-22T10:14:31.402Z,69.44
2019-03-22T10:17:10.238Z,69.67
2019-03-22T10:19:46.620Z,69.32
2019-03-22T10:22:23.593Z,69.41
2019-03-22T10:24:57.158Z,69.35
2019-03-22T10:27:32.811Z,69.36
2019-03-22T10:30:07.628Z,69.24
2019-03-22T10:32:43.147Z,69.13
2019-03-22T10:35:26.100Z,69.02
2019-03-22T10:38:00.432Z,68.97
2019-03-22T10:40:30.911Z,69.01
2019-03-22T10:43:04.643Z,69.12
2019-03-22T10:45:40.878Z,68.72
2019-03-22T10:48:15.928Z,68.93
2019-03-22T10:50:57.277Z,68.68
2019-03-22T10:53:31.134Z,68.63
2019-03-22T10:56:07.316Z,68.47
2019-03-22T10:58:41.042Z,68.23
2019-03-22T11:01:17.529Z,67.87
2019-03-22T11:03:53.984Z,67.61
2019-03-22T11:06:30.150Z,67.26
2019-03-22T11:09:08.513Z,67.14
2019-03-22T11:11:44.249Z,66.82
2019-03-22T11:14:20.448Z,66.86
2019-03-22T11:16:54.256Z,66.90
2019-03-22T11:19:27.988Z,67.04
2019-03-22T11:22:01.884Z,67.25
2019-03-22T11:24:37.791Z,66.91
2019-03-22T11:27:13.778Z,66.96
2019-03-22T11:29:47.998Z,66.92
2019-03-22T11:32:22.997Z,67.06
2019-03-22T11:35:00.671Z,66.99
2019-03-22T11:37:34.346Z,67.22
2019-03-22T11:40:10.802Z,67.30
2019-03-22T11:42:44.605Z,67.21
2019-03-22T11:45:20.329Z,67.06
2019-03-22T11:47:54.125Z,67.08
2019-03-22T11:50:29.081Z,66.97
2019-03-22T11:53:02.817Z,67.11
2019-03-22T11:55:36.463Z,67.29
2019-03-22T11:58:10.839Z,67.32
2019-03-22T12:00:44.661Z,67.17
2019-03-22T12:03:18.443Z,67.00
2019-03-22T12:05:52.262Z,67.05
2019-03-22T12:08:28.759Z,67.05
2019-03-22T12:11:03.052Z,66.98
2019-03-22T12:13:37.163Z,66.77
2019-03-22T12:16:11.201Z,66.67
2019-03-22T12:18:45.264Z,66.61
2019-03-22T12:21:20.320Z,66.75
2019-03-22T12:23:56.633Z,66.54
2019-03-22T12:26:32.125Z,66.43
2019-03-22T12:29:07.408Z,66.41
2019-03-22T12:31:41.092Z,66.57
2019-03-22T12:34:16.823Z,67.21
2019-03-22T12:36:50.458Z,67.23
2019-03-22T12:39:24.266Z,67.37
2019-03-22T12:41:57.939Z,67.26
2019-03-22T12:44:33.223Z,67.56
2019-03-22T12:47:07.073Z,67.67
2019-03-22T12:49:42.875Z,67.36
2019-03-22T12:52:16.702Z,67.10
2019-03-22T12:54:53.394Z,67.02
2019-03-22T12:57:27.130Z,67.19
2019-03-22T13:00:00.725Z,67.47
2019-03-22T13:02:42.056Z,67.49
2019-03-22T13:05:10.489Z,67.44
2019-03-22T13:07:44.273Z,67.85
2019-03-22T13:10:19.485Z,68.47
2019-03-22T13:12:53.245Z,68.69
2019-03-22T13:15:29.297Z,69.12
2019-03-22T13:18:03.246Z,69.37
2019-03-22T13:20:37.206Z,69.19
2019-03-22T13:23:12.725Z,69.16
2019-03-22T13:25:46.741Z,69.17
2019-03-22T13:28:43.627Z,69.11
2019-03-22T13:31:18.566Z,69.17
2019-03-22T13:33:54.034Z,69.11
2019-03-22T13:36:30.965Z,69.31
2019-03-22T13:39:06.673Z,69.47
2019-03-22T13:41:46.302Z,69.40
2019-03-22T13:44:31.492Z,69.13
2019-03-22T13:47:08.559Z,68.82
2019-03-22T13:49:50.654Z,68.83
2019-03-22T13:52:26.135Z,68.89
2019-03-22T13:55:00.054Z,68.94
2019-03-22T13:57:33.747Z,68.84
2019-03-22T14:00:12.496Z,69.00
2019-03-22T14:02:49.331Z,69.27
2019-03-22T14:05:23.254Z,69.62
2019-03-22T14:07:56.941Z,69.98
2019-03-22T14:10:35.840Z,70.31
2019-03-22T14:13:12.917Z,70.42
2019-03-22T14:15:46.600Z,70.39
2019-03-22T14:18:20.323Z,69.97
2019-03-22T14:20:57.167Z,70.10
2019-03-22T14:23:35.652Z,69.91
2019-03-22T14:26:12.579Z,69.62
2019-03-22T14:28:49.709Z,69.93
2019-03-22T14:31:31.995Z,69.80
2019-03-22T14:34:12.659Z,69.55
2019-03-22T14:36:52.625Z,69.46
2019-03-22T14:39:35.824Z,69.60
2019-03-22T14:42:13.845Z,69.70
2019-03-22T14:44:53.371Z,69.76
2019-03-22T14:47:42.440Z,69.86
2019-03-22T14:50:27.780Z,69.97
2019-03-22T14:53:07.856Z,69.86
2019-03-22T14:56:00.321Z,70.08
2019-03-22T14:58:37.758Z,70.35
2019-03-22T15:01:23.985Z,70.67
2019-03-22T15:04:15.310Z,70.87
2019-03-22T15:06:56.587Z,71.13
2019-03-22T15:09:31.991Z,71.31
2019-03-22T15:12:08.296Z,71.66
2019-03-22T15:14:54.301Z,71.89
2019-03-22T15:17:54.774Z,72.00
2019-03-22T15:20:56.776Z,72.11
2019-03-22T15:23:50.567Z,72.20
2019-03-22T15:26:33.891Z,72.45
2019-03-22T15:29:29.885Z,72.57
2019-03-22T15:32:46.788Z,72.75
2019-03-22T15:35:54.991Z,72.72
2019-03-22T15:38:54.209Z,72.92
2019-03-22T15:41:39.773Z,72.91
2019-03-22T15:44:16.672Z,72.92
2019-03-22T15:46:50.586Z,73.57
2019-03-22T15:49:24.342Z,73.49
2019-03-22T15:51:57.907Z,73.40
2019-03-22T15:54:31.675Z,73.21
2019-03-22T15:57:05.355Z,73.24
2019-03-22T15:59:39.009Z,73.59
2019-03-22T16:02:12.790Z,73.36
2019-03-22T16:04:46.528Z,73.43
2019-03-22T16:07:20.149Z,73.37
2019-03-22T16:09:53.811Z,73.20
2019-03-22T16:12:27.424Z,73.61
2019-03-22T16:15:01.174Z,73.49
2019-03-22T16:17:34.795Z,73.25
2019-03-22T16:20:09.668Z,73.37
2019-03-22T16:22:43.507Z,73.58
2019-03-22T16:25:17.343Z,73.68
2019-03-22T16:27:51.015Z,73.81
2019-03-22T16:30:24.596Z,73.81
2019-03-22T16:32:58.242Z,73.61
2019-03-22T16:35:32.209Z,73.84
2019-03-22T16:38:05.878Z,73.89
2019-03-22T16:40:39.498Z,73.75
2019-03-22T16:43:13.296Z,73.98
2019-03-22T16:45:47.074Z,73.86
2019-03-22T16:48:20.693Z,73.65
2019-03-22T16:50:54.332Z,73.51
2019-03-22T16:53:27.917Z,73.55
2019-03-22T16:56:01.540Z,73.78
2019-03-22T16:58:36.361Z,73.79
2019-03-22T17:01:10.171Z,73.93
2019-03-22T17:03:43.792Z,74.07
2019-03-22T17:06:17.345Z,73.86
2019-03-22T17:08:51.012Z,73.77
2019-03-22T17:11:24.657Z,74.00
2019-03-22T17:13:58.227Z,74.36
2019-03-22T17:16:31.749Z,74.58
2019-03-22T17:19:05.392Z,74.64
2019-03-22T17:21:40.431Z,74.51
2019-03-22T17:24:14.086Z,74.45
2019-03-22T17:26:47.689Z,74.59
2019-03-22T17:29:21.221Z,74.39
2019-03-22T17:31:54.837Z,74.78
2019-03-22T17:34:28.510Z,74.59
2019-03-22T17:37:02.085Z,74.46
2019-03-22T17:39:35.738Z,74.58
2019-03-22T17:42:09.332Z,74.91
2019-03-22T17:44:42.926Z,75.21
2019-03-22T17:47:16.473Z,74.63
2019-03-22T17:49:51.193Z,75.65
2019-03-22T17:52:24.793Z,75.89
2019-03-22T17:54:58.397Z,76.08
2019-03-22T17:57:32.111Z,76.10
2019-03-22T18:00:09.059Z,76.17
2019-03-22T18:02:42.765Z,76.16
2019-03-22T18:05:16.673Z,76.28
2019-03-22T18:07:50.301Z,76.33
2019-03-22T18:10:23.833Z,76.61
2019-03-22T18:12:57.711Z,76.72
2019-03-22T18:15:31.307Z,76.71
2019-03-22T18:18:04.907Z,76.55
2019-03-22T18:20:38.453Z,76.57
2019-03-22T18:23:12.230Z,76.43
2019-03-22T18:25:45.875Z,76.32
2019-03-22T18:28:19.590Z,76.14
2019-03-22T18:30:53.376Z,76.05
2019-03-22T18:33:28.157Z,75.91
2019-03-22T18:36:01.768Z,75.85
2019-03-22T18:38:35.500Z,75.85
2019-03-22T18:41:09.193Z,75.65
2019-03-22T18:43:43.027Z,75.37
2019-03-22T18:46:16.763Z,75.43
2019-03-22T18:48:50.330Z,75.36
2019-03-22T18:51:24.134Z,75.55
2019-03-22T18:53:57.753Z,75.41
2019-03-22T18:56:31.452Z,75.71
2019-03-22T18:59:05.201Z,75.66
2019-03-22T19:01:38.840Z,75.40
2019-03-22T19:04:12.702Z,75.63
2019-03-22T19:06:46.389Z,75.90
2019-03-22T19:09:20.032Z,76.11
2019-03-22T19:11:53.698Z,76.35
2019-03-22T19:14:27.269Z,76.25
2019-03-22T19:17:00.826Z,76.43
2019-03-22T19:19:34.458Z,76.45
2019-03-22T19:22:08.170Z,76.65
2019-03-22T19:24:41.808Z,76.59
2019-03-22T19:27:15.470Z,77.18
2019-03-22T19:29:49.187Z,77.78
2019-03-22T19:32:23.071Z,77.94
2019-03-22T19:34:56.873Z,78.39
2019-03-22T19:37:30.508Z,78.23
2019-03-22T19:40:04.307Z,78.21
2019-03-22T19:42:39.021Z,78.46
2019-03-22T19:45:16.615Z,78.43
2019-03-22T19:47:50.179Z,78.39
2019-03-22T19:50:23.854Z,78.37
2019-03-22T19:52:57.625Z,78.32
2019-03-22T19:55:32.430Z,78.33
2019-03-22T19:58:06.291Z,78.37
2019-03-22T20:00:40.148Z,78.39
2019-03-22T20:03:13.937Z,78.53
2019-03-22T20:05:47.639Z,78.65
2019-03-22T20:08:21.355Z,78.84
2019-03-22T20:10:55.043Z,78.92
2019-03-22T20:13:28.904Z,78.82
2019-03-22T20:16:02.533Z,78.78
2019-03-22T20:18:36.196Z,78.65
2019-03-22T20:21:09.836Z,78.68
2019-03-22T20:23:53.234Z,78.66
2019-03-22T20:26:19.709Z,78.22
2019-03-22T20:28:53.635Z,77.71
2019-03-22T20:31:27.400Z,77.29
2019-03-22T20:34:01.232Z,77.17
2019-03-22T20:36:35.494Z,77.00
2019-03-22T20:39:09.922Z,76.59
2019-03-22T20:41:43.820Z,76.19
2019-03-22T20:44:18.744Z,75.99
2019-03-22T20:46:52.578Z,75.84
2019-03-22T20:49:26.531Z,75.83
2019-03-22T20:52:00.358Z,75.68
2019-03-22T20:54:34.049Z,75.60
2019-03-22T20:57:07.666Z,75.54
2019-03-22T20:59:41.289Z,75.52
2019-03-22T21:02:15.159Z,75.44
2019-03-22T21:04:51.077Z,75.37
2019-03-22T21:07:24.784Z,75.05
2019-03-22T21:09:58.427Z,74.84
2019-03-22T21:12:32.433Z,74.45
2019-03-22T21:15:06.733Z,74.41
2019-03-22T21:17:40.379Z,74.30
2019-03-22T21:20:14.667Z,74.06
2019-03-22T21:22:48.729Z,74.02
2019-03-22T21:25:24.844Z,73.99
2019-03-22T21:28:00.139Z,73.82
2019-03-22T21:30:33.883Z,73.68
2019-03-22T21:33:09.434Z,73.73
2019-03-22T21:35:46.086Z,73.38
2019-03-22T21:38:20.091Z,73.42
2019-03-22T21:40:54.195Z,73.39
2019-03-22T21:43:28.260Z,73.29
2019-03-22T21:46:05.104Z,73.34
2019-03-22T21:48:38.724Z,73.40
2019-03-22T21:51:12.564Z,73.44
2019-03-22T21:53:49.014Z,73.33
2019-03-22T21:56:22.968Z,73.13
2019-03-22T21:58:56.871Z,73.13
2019-03-22T22:01:31.831Z,72.73
2019-03-22T22:04:07.313Z,72.71
2019-03-22T22:06:41.046Z,72.85
2019-03-22T22:09:16.413Z,72.84
2019-03-22T22:11:51.797Z,73.04
2019-03-22T22:14:25.714Z,73.09
2019-03-22T22:17:00.955Z,72.83
2019-03-22T22:19:38.309Z,72.58
2019-03-22T22:22:11.938Z,72.15
2019-03-22T22:24:45.648Z,72.24
2019-03-22T22:27:19.416Z,72.34
2019-03-22T22:29:54.990Z,72.00
2019-03-22T22:32:28.403Z,71.99
2019-03-22T22:35:02.064Z,72.17
2019-03-22T22:37:35.871Z,72.18
2019-03-22T22:40:13.723Z,72.15
2019-03-22T22:42:50.094Z,72.20
2019-03-22T22:45:25.750Z,72.29
2019-03-22T22:48:01.315Z,72.45
2019-03-22T22:50:35.705Z,72.20
2019-03-22T22:53:12.526Z,72.50
2019-03-22T22:55:46.233Z,72.65
2019-03-22T22:58:19.855Z,72.75
2019-03-22T23:00:53.486Z,72.64
2019-03-22T23:03:28.703Z,72.73
2019-03-22T23:06:09.385Z,72.90
2019-03-22T23:08:37.503Z,73.21
2019-03-22T23:11:11.240Z,73.02
2019-03-22T23:13:44.962Z,73.24
2019-03-22T23:16:18.599Z,73.49
2019-03-22T23:18:52.308Z,73.71
2019-03-22T23:21:25.907Z,73.83
2019-03-22T23:23:59.684Z,73.74
2019-03-22T23:26:34.615Z,74.16
2019-03-22T23:29:08.201Z,74.39
2019-03-22T23:31:41.981Z,74.36
2019-03-22T23:34:15.693Z,74.43
2019-03-22T23:36:49.408Z,74.48
2019-03-22T23:39:23.158Z,74.58
2019-03-22T23:41:56.774Z,74.75
2019-03-22T23:44:30.472Z,74.44
2019-03-22T23:47:04.220Z,74.29
2019-03-22T23:49:38.028Z,74.75
2019-03-22T23:52:11.725Z,75.20
2019-03-22T23:54:45.325Z,75.61
2019-03-22T23:57:19.053Z,75.85
2019-03-22T23:59:52.767Z,76.40
